sensor_id;sensor_type;location;lat;lon;timestamp;pressure;altitude;pressure_sealevel;temperature;humidity
7532;BME280;3807;49.030;8.714;2023-02-11T00:00:58;101406.84;;;2.24;66.45
7532;BME280;3807;49.030;8.714;2023-02-11T00:03:24;101412.38;;;2.14;66.46
7532;BME280;3807;49.030;8.714;2023-02-11T00:06:00;101411.81;;;2.23;66.39
7532;BME280;3807;49.030;8.714;2023-02-11T00:08:26;101401.66;;;2.20;66.70
7532;BME280;3807;49.030;8.714;2023-02-11T00:10:53;101399.44;;;2.03;66.87
7532;BME280;3807;49.030;8.714;2023-02-11T00:13:20;101408.53;;;2.00;67.00
7532;BME280;3807;49.030;8.714;2023-02-11T00:15:45;101409.87;;;1.91;67.22
7532;BME280;3807;49.030;8.714;2023-02-11T00:18:10;101407.00;;;2.05;66.92
7532;BME280;3807;49.030;8.714;2023-02-11T00:20:38;101412.09;;;2.06;66.77
7532;BME280;3807;49.030;8.714;2023-02-11T00:23:03;101406.47;;;1.89;67.39
7532;BME280;3807;49.030;8.714;2023-02-11T00:25:29;101415.03;;;1.95;67.23
7532;BME280;3807;49.030;8.714;2023-02-11T00:27:54;101412.25;;;1.87;67.24
7532;BME280;3807;49.030;8.714;2023-02-11T00:30:19;101413.37;;;1.95;67.00
7532;BME280;3807;49.030;8.714;2023-02-11T00:32:45;101418.69;;;2.03;66.68
7532;BME280;3807;49.030;8.714;2023-02-11T00:35:11;101413.44;;;1.97;66.69
7532;BME280;3807;49.030;8.714;2023-02-11T00:37:36;101423.91;;;2.09;66.44
7532;BME280;3807;49.030;8.714;2023-02-11T00:40:03;101422.56;;;1.95;66.86
7532;BME280;3807;49.030;8.714;2023-02-11T00:42:29;101422.38;;;1.88;67.24
7532;BME280;3807;49.030;8.714;2023-02-11T00:44:54;101415.78;;;1.92;66.46
7532;BME280;3807;49.030;8.714;2023-02-11T00:47:19;101409.87;;;1.91;66.33
7532;BME280;3807;49.030;8.714;2023-02-11T00:49:45;101406.00;;;2.00;66.56
7532;BME280;3807;49.030;8.714;2023-02-11T00:52:10;101402.78;;;2.04;66.53
7532;BME280;3807;49.030;8.714;2023-02-11T00:54:35;101406.03;;;2.01;66.51
7532;BME280;3807;49.030;8.714;2023-02-11T00:57:01;101407.78;;;2.02;66.46
7532;BME280;3807;49.030;8.714;2023-02-11T00:59:26;101402.94;;;2.08;66.33
7532;BME280;3807;49.030;8.714;2023-02-11T01:01:52;101404.59;;;1.84;66.48
7532;BME280;3807;49.030;8.714;2023-02-11T01:04:17;101397.38;;;1.69;67.37
7532;BME280;3807;49.030;8.714;2023-02-11T01:06:42;101398.00;;;1.63;66.93
7532;BME280;3807;49.030;8.714;2023-02-11T01:09:08;101394.81;;;1.67;67.72
7532;BME280;3807;49.030;8.714;2023-02-11T01:11:33;101378.97;;;1.70;67.46
7532;BME280;3807;49.030;8.714;2023-02-11T01:13:59;101380.41;;;1.86;66.42
7532;BME280;3807;49.030;8.714;2023-02-11T01:16:24;101383.16;;;1.70;66.68
7532;BME280;3807;49.030;8.714;2023-02-11T01:18:49;101374.62;;;1.64;67.18
7532;BME280;3807;49.030;8.714;2023-02-11T01:21:15;101369.97;;;1.75;67.13
7532;BME280;3807;49.030;8.714;2023-02-11T01:23:41;101366.53;;;1.73;66.92
7532;BME280;3807;49.030;8.714;2023-02-11T01:26:06;101361.66;;;1.78;66.73
7532;BME280;3807;49.030;8.714;2023-02-11T01:28:32;101369.41;;;1.60;67.03
7532;BME280;3807;49.030;8.714;2023-02-11T01:30:59;101369.31;;;1.81;66.36
7532;BME280;3807;49.030;8.714;2023-02-11T01:33:24;101368.09;;;1.70;66.92
7532;BME280;3807;49.030;8.714;2023-02-11T01:35:50;101365.41;;;1.65;67.04
7532;BME280;3807;49.030;8.714;2023-02-11T01:38:23;101376.59;;;1.73;66.55
7532;BME280;3807;49.030;8.714;2023-02-11T01:43:23;101379.09;;;1.73;66.54
7532;BME280;3807;49.030;8.714;2023-02-11T01:45:59;101364.38;;;1.82;66.57
7532;BME280;3807;49.030;8.714;2023-02-11T01:48:32;101361.00;;;1.82;66.46
7532;BME280;3807;49.030;8.714;2023-02-11T01:51:11;101368.16;;;1.71;66.79
7532;BME280;3807;49.030;8.714;2023-02-11T01:53:38;101359.00;;;1.73;66.57
7532;BME280;3807;49.030;8.714;2023-02-11T01:56:25;101358.84;;;1.69;66.08
7532;BME280;3807;49.030;8.714;2023-02-11T01:59:21;101352.88;;;1.65;66.83
7532;BME280;3807;49.030;8.714;2023-02-11T02:01:57;101352.31;;;1.74;66.45
7532;BME280;3807;49.030;8.714;2023-02-11T02:04:27;101353.97;;;1.73;66.06
7532;BME280;3807;49.030;8.714;2023-02-11T02:07:02;101350.25;;;1.62;66.32
7532;BME280;3807;49.030;8.714;2023-02-11T02:09:35;101355.19;;;1.60;66.40
7532;BME280;3807;49.030;8.714;2023-02-11T02:12:02;101352.03;;;1.42;67.33
7532;BME280;3807;49.030;8.714;2023-02-11T02:14:27;101354.94;;;1.53;66.56
7532;BME280;3807;49.030;8.714;2023-02-11T02:16:53;101350.25;;;1.62;66.58
7532;BME280;3807;49.030;8.714;2023-02-11T02:19:47;101349.63;;;1.67;66.13
7532;BME280;3807;49.030;8.714;2023-02-11T02:23:07;101350.81;;;1.55;66.65
7532;BME280;3807;49.030;8.714;2023-02-11T02:31:03;101330.62;;;1.52;66.68
7532;BME280;3807;49.030;8.714;2023-02-11T02:33:42;101333.69;;;1.43;66.78
7532;BME280;3807;49.030;8.714;2023-02-11T02:36:30;101327.88;;;1.46;66.63
7532;BME280;3807;49.030;8.714;2023-02-11T02:39:06;101322.63;;;1.62;66.78
7532;BME280;3807;49.030;8.714;2023-02-11T02:41:34;101320.91;;;1.61;66.19
7532;BME280;3807;49.030;8.714;2023-02-11T02:44:00;101311.22;;;1.48;66.69
7532;BME280;3807;49.030;8.714;2023-02-11T02:46:31;101306.12;;;1.46;66.52
7532;BME280;3807;49.030;8.714;2023-02-11T02:48:57;101310.81;;;1.59;66.13
7532;BME280;3807;49.030;8.714;2023-02-11T02:51:54;101306.06;;;1.43;66.59
7532;BME280;3807;49.030;8.714;2023-02-11T03:05:11;101285.38;;;1.50;66.52
7532;BME280;3807;49.030;8.714;2023-02-11T03:08:05;101282.44;;;1.38;67.30
7532;BME280;3807;49.030;8.714;2023-02-11T03:10:38;101286.62;;;1.39;67.19
7532;BME280;3807;49.030;8.714;2023-02-11T03:13:05;101283.66;;;1.49;66.84
7532;BME280;3807;49.030;8.714;2023-02-11T03:15:37;101279.81;;;1.59;66.13
7532;BME280;3807;49.030;8.714;2023-02-11T03:18:05;101282.31;;;1.35;66.98
7532;BME280;3807;49.030;8.714;2023-02-11T03:20:35;101284.97;;;1.39;66.59
7532;BME280;3807;49.030;8.714;2023-02-11T03:23:06;101272.91;;;1.53;66.03
7532;BME280;3807;49.030;8.714;2023-02-11T03:25:37;101264.22;;;1.43;66.43
7532;BME280;3807;49.030;8.714;2023-02-11T03:28:22;101271.91;;;1.48;66.22
7532;BME280;3807;49.030;8.714;2023-02-11T03:33:40;101257.97;;;1.56;66.14
7532;BME280;3807;49.030;8.714;2023-02-11T03:36:18;101261.66;;;1.42;66.79
7532;BME280;3807;49.030;8.714;2023-02-11T03:38:50;101248.31;;;1.43;66.35
7532;BME280;3807;49.030;8.714;2023-02-11T03:41:19;101249.34;;;1.50;66.52
7532;BME280;3807;49.030;8.714;2023-02-11T03:43:50;101251.00;;;1.49;66.47
7532;BME280;3807;49.030;8.714;2023-02-11T03:46:19;101248.94;;;1.37;66.59
7532;BME280;3807;49.030;8.714;2023-02-11T03:48:50;101263.66;;;1.28;67.40
7532;BME280;3807;49.030;8.714;2023-02-11T03:51:16;101265.38;;;1.53;66.30
7532;BME280;3807;49.030;8.714;2023-02-11T03:53:44;101271.31;;;1.55;66.29
7532;BME280;3807;49.030;8.714;2023-02-11T03:56:13;101275.62;;;1.59;66.34
7532;BME280;3807;49.030;8.714;2023-02-11T03:58:43;101284.63;;;1.53;66.54
7532;BME280;3807;49.030;8.714;2023-02-11T04:01:09;101280.25;;;1.47;66.56
7532;BME280;3807;49.030;8.714;2023-02-11T04:03:34;101286.12;;;1.72;65.71
7532;BME280;3807;49.030;8.714;2023-02-11T04:06:00;101283.44;;;1.67;65.91
7532;BME280;3807;49.030;8.714;2023-02-11T04:08:25;101285.88;;;1.40;66.42
7532;BME280;3807;49.030;8.714;2023-02-11T04:10:50;101287.94;;;1.52;66.35
7532;BME280;3807;49.030;8.714;2023-02-11T04:13:16;101274.19;;;1.66;66.00
7532;BME280;3807;49.030;8.714;2023-02-11T04:15:41;101281.59;;;1.61;66.09
7532;BME280;3807;49.030;8.714;2023-02-11T04:18:07;101273.87;;;1.57;66.07
7532;BME280;3807;49.030;8.714;2023-02-11T04:20:32;101272.44;;;1.39;66.71
7532;BME280;3807;49.030;8.714;2023-02-11T04:22:57;101272.16;;;1.56;66.38
7532;BME280;3807;49.030;8.714;2023-02-11T04:25:23;101271.34;;;1.57;66.13
7532;BME280;3807;49.030;8.714;2023-02-11T04:27:50;101269.03;;;1.61;66.12
7532;BME280;3807;49.030;8.714;2023-02-11T04:30:15;101259.12;;;1.66;66.11
7532;BME280;3807;49.030;8.714;2023-02-11T04:32:40;101262.28;;;1.60;66.22
7532;BME280;3807;49.030;8.714;2023-02-11T04:35:06;101262.34;;;1.62;66.12
7532;BME280;3807;49.030;8.714;2023-02-11T04:37:31;101273.63;;;1.49;66.64
7532;BME280;3807;49.030;8.714;2023-02-11T04:39:56;101269.78;;;1.35;66.99
7532;BME280;3807;49.030;8.714;2023-02-11T04:42:22;101271.47;;;1.60;66.36
7532;BME280;3807;49.030;8.714;2023-02-11T04:44:48;101272.84;;;1.50;66.52
7532;BME280;3807;49.030;8.714;2023-02-11T04:47:13;101273.38;;;1.67;66.13
7532;BME280;3807;49.030;8.714;2023-02-11T04:49:39;101269.31;;;1.71;66.14
7532;BME280;3807;49.030;8.714;2023-02-11T04:52:05;101262.66;;;1.71;66.09
7532;BME280;3807;49.030;8.714;2023-02-11T04:54:30;101254.22;;;1.69;66.18
7532;BME280;3807;49.030;8.714;2023-02-11T04:56:56;101255.31;;;1.77;66.13
7532;BME280;3807;49.030;8.714;2023-02-11T04:59:21;101252.22;;;1.60;66.37
7532;BME280;3807;49.030;8.714;2023-02-11T05:01:46;101256.50;;;1.63;66.62
7532;BME280;3807;49.030;8.714;2023-02-11T05:04:12;101245.69;;;1.64;66.17
7532;BME280;3807;49.030;8.714;2023-02-11T05:06:38;101224.22;;;1.74;65.95
7532;BME280;3807;49.030;8.714;2023-02-11T05:09:03;101211.16;;;1.58;66.47
7532;BME280;3807;49.030;8.714;2023-02-11T05:11:29;101199.81;;;1.70;66.31
7532;BME280;3807;49.030;8.714;2023-02-11T05:13:54;101193.78;;;1.64;66.45
7532;BME280;3807;49.030;8.714;2023-02-11T05:16:20;101197.38;;;1.71;66.38
7532;BME280;3807;49.030;8.714;2023-02-11T05:18:46;101198.59;;;1.58;66.79
7532;BME280;3807;49.030;8.714;2023-02-11T05:21:14;101195.19;;;1.82;66.42
7532;BME280;3807;49.030;8.714;2023-02-11T05:23:40;101191.06;;;1.58;66.87
7532;BME280;3807;49.030;8.714;2023-02-11T05:26:06;101196.44;;;1.69;66.46
7532;BME280;3807;49.030;8.714;2023-02-11T05:28:31;101188.09;;;1.70;66.46
7532;BME280;3807;49.030;8.714;2023-02-11T05:30:57;101189.63;;;1.65;66.58
7532;BME280;3807;49.030;8.714;2023-02-11T05:33:24;101191.81;;;1.56;67.07
7532;BME280;3807;49.030;8.714;2023-02-11T05:35:49;101203.53;;;1.81;66.19
7532;BME280;3807;49.030;8.714;2023-02-11T05:38:15;101207.03;;;1.60;67.02
7532;BME280;3807;49.030;8.714;2023-02-11T05:40:41;101221.25;;;1.60;66.83
7532;BME280;3807;49.030;8.714;2023-02-11T05:43:06;101233.31;;;1.70;66.47
7532;BME280;3807;49.030;8.714;2023-02-11T05:45:32;101235.69;;;1.65;67.50
7532;BME280;3807;49.030;8.714;2023-02-11T05:47:57;101235.81;;;1.70;67.84
7532;BME280;3807;49.030;8.714;2023-02-11T05:50:23;101241.91;;;1.77;66.55
7532;BME280;3807;49.030;8.714;2023-02-11T05:52:48;101242.81;;;1.79;66.49
7532;BME280;3807;49.030;8.714;2023-02-11T05:55:14;101238.41;;;1.72;67.16
7532;BME280;3807;49.030;8.714;2023-02-11T05:57:39;101237.47;;;1.70;66.68
7532;BME280;3807;49.030;8.714;2023-02-11T06:00:05;101238.78;;;1.84;66.93
7532;BME280;3807;49.030;8.714;2023-02-11T06:02:30;101243.81;;;1.84;66.42
7532;BME280;3807;49.030;8.714;2023-02-11T06:04:56;101229.91;;;1.68;66.98
7532;BME280;3807;49.030;8.714;2023-02-11T06:07:21;101225.06;;;1.74;67.13
7532;BME280;3807;49.030;8.714;2023-02-11T06:09:47;101218.66;;;1.82;67.11
7532;BME280;3807;49.030;8.714;2023-02-11T06:12:12;101222.03;;;1.83;67.71
7532;BME280;3807;49.030;8.714;2023-02-11T06:14:37;101225.97;;;2.02;66.65
7532;BME280;3807;49.030;8.714;2023-02-11T06:17:03;101229.09;;;1.95;66.92
7532;BME280;3807;49.030;8.714;2023-02-11T06:19:28;101228.31;;;1.96;66.65
7532;BME280;3807;49.030;8.714;2023-02-11T06:21:54;101224.88;;;1.94;66.40
7532;BME280;3807;49.030;8.714;2023-02-11T06:24:20;101226.87;;;2.04;66.01
7532;BME280;3807;49.030;8.714;2023-02-11T06:26:45;101233.59;;;2.05;66.67
7532;BME280;3807;49.030;8.714;2023-02-11T06:29:10;101238.41;;;1.97;66.47
7532;BME280;3807;49.030;8.714;2023-02-11T06:31:37;101229.19;;;1.98;67.17
7532;BME280;3807;49.030;8.714;2023-02-11T06:34:02;101229.00;;;1.91;66.96
7532;BME280;3807;49.030;8.714;2023-02-11T06:36:29;101222.41;;;1.95;66.81
7532;BME280;3807;49.030;8.714;2023-02-11T06:38:54;101229.28;;;2.01;67.37
7532;BME280;3807;49.030;8.714;2023-02-11T06:41:20;101224.88;;;1.94;66.53
7532;BME280;3807;49.030;8.714;2023-02-11T06:43:45;101229.28;;;2.01;66.25
7532;BME280;3807;49.030;8.714;2023-02-11T06:46:11;101216.37;;;1.90;66.86
7532;BME280;3807;49.030;8.714;2023-02-11T06:48:36;101224.38;;;2.04;66.75
7532;BME280;3807;49.030;8.714;2023-02-11T06:51:03;101228.19;;;1.93;66.30
7532;BME280;3807;49.030;8.714;2023-02-11T06:53:30;101227.50;;;1.97;67.87
7532;BME280;3807;49.030;8.714;2023-02-11T06:55:55;101227.63;;;2.01;66.91
7532;BME280;3807;49.030;8.714;2023-02-11T06:58:21;101234.72;;;2.13;66.70
7532;BME280;3807;49.030;8.714;2023-02-11T07:00:46;101236.94;;;2.04;66.64
7532;BME280;3807;49.030;8.714;2023-02-11T07:03:11;101231.16;;;2.06;66.74
7532;BME280;3807;49.030;8.714;2023-02-11T07:05:37;101230.03;;;1.98;67.73
7532;BME280;3807;49.030;8.714;2023-02-11T07:08:03;101230.16;;;2.01;67.89
7532;BME280;3807;49.030;8.714;2023-02-11T07:10:28;101228.16;;;2.18;67.19
7532;BME280;3807;49.030;8.714;2023-02-11T07:12:54;101231.28;;;2.11;66.38
7532;BME280;3807;49.030;8.714;2023-02-11T07:15:19;101234.38;;;2.02;66.74
7532;BME280;3807;49.030;8.714;2023-02-11T07:17:44;101246.13;;;2.03;67.26
7532;BME280;3807;49.030;8.714;2023-02-11T07:20:10;101251.88;;;2.26;66.86
7532;BME280;3807;49.030;8.714;2023-02-11T07:22:36;101254.37;;;1.99;68.04
7532;BME280;3807;49.030;8.714;2023-02-11T07:25:02;101260.47;;;2.06;67.98
7532;BME280;3807;49.030;8.714;2023-02-11T07:27:28;101262.31;;;2.11;67.80
7532;BME280;3807;49.030;8.714;2023-02-11T07:29:53;101258.13;;;2.12;66.96
7532;BME280;3807;49.030;8.714;2023-02-11T07:32:19;101263.94;;;2.09;67.37
7532;BME280;3807;49.030;8.714;2023-02-11T07:34:44;101266.28;;;2.05;69.38
7532;BME280;3807;49.030;8.714;2023-02-11T07:37:09;101268.03;;;2.07;67.31
7532;BME280;3807;49.030;8.714;2023-02-11T07:39:35;101268.50;;;2.21;67.60
7532;BME280;3807;49.030;8.714;2023-02-11T07:42:00;101269.84;;;2.11;68.31
7532;BME280;3807;49.030;8.714;2023-02-11T07:44:25;101267.63;;;2.21;67.54
7532;BME280;3807;49.030;8.714;2023-02-11T07:46:51;101261.81;;;1.96;67.49
7532;BME280;3807;49.030;8.714;2023-02-11T07:49:16;101271.63;;;2.14;67.91
7532;BME280;3807;49.030;8.714;2023-02-11T07:51:42;101264.69;;;2.07;68.38
7532;BME280;3807;49.030;8.714;2023-02-11T07:54:08;101251.41;;;2.11;69.32
7532;BME280;3807;49.030;8.714;2023-02-11T07:56:35;101261.34;;;2.08;67.38
7532;BME280;3807;49.030;8.714;2023-02-11T07:59:02;101251.22;;;2.32;68.79
7532;BME280;3807;49.030;8.714;2023-02-11T08:01:28;101241.16;;;2.32;67.17
7532;BME280;3807;49.030;8.714;2023-02-11T08:03:58;101240.94;;;2.24;68.02
7532;BME280;3807;49.030;8.714;2023-02-11T08:06:26;101244.94;;;2.19;67.48
7532;BME280;3807;49.030;8.714;2023-02-11T08:08:52;101247.16;;;2.35;67.16
7532;BME280;3807;49.030;8.714;2023-02-11T08:11:27;101241.06;;;2.29;66.91
7532;BME280;3807;49.030;8.714;2023-02-11T08:13:53;101241.56;;;2.17;67.19
7532;BME280;3807;49.030;8.714;2023-02-11T08:18:47;101234.53;;;2.34;66.66
7532;BME280;3807;49.030;8.714;2023-02-11T08:21:13;101237.47;;;2.48;67.77
7532;BME280;3807;49.030;8.714;2023-02-11T08:23:40;101242.41;;;2.45;67.14
7532;BME280;3807;49.030;8.714;2023-02-11T08:26:10;101242.53;;;2.49;67.46
7532;BME280;3807;49.030;8.714;2023-02-11T08:28:37;101239.41;;;2.56;67.48
7532;BME280;3807;49.030;8.714;2023-02-11T08:31:05;101240.34;;;2.60;67.39
7532;BME280;3807;49.030;8.714;2023-02-11T08:33:30;101237.00;;;2.61;67.32
7532;BME280;3807;49.030;8.714;2023-02-11T08:35:56;101249.69;;;2.64;67.34
7532;BME280;3807;49.030;8.714;2023-02-11T08:38:21;101245.03;;;2.48;67.41
7532;BME280;3807;49.030;8.714;2023-02-11T08:40:46;101243.63;;;2.57;67.53
7532;BME280;3807;49.030;8.714;2023-02-11T08:43:13;101243.63;;;2.57;67.51
7532;BME280;3807;49.030;8.714;2023-02-11T08:45:38;101241.56;;;2.44;67.35
7532;BME280;3807;49.030;8.714;2023-02-11T08:48:04;101236.19;;;2.33;69.23
7532;BME280;3807;49.030;8.714;2023-02-11T08:50:29;101229.69;;;2.40;69.08
7532;BME280;3807;49.030;8.714;2023-02-11T08:52:56;101235.66;;;2.44;69.10
7532;BME280;3807;49.030;8.714;2023-02-11T08:55:21;101234.03;;;2.44;69.09
7532;BME280;3807;49.030;8.714;2023-02-11T08:57:46;101250.84;;;2.47;69.11
7532;BME280;3807;49.030;8.714;2023-02-11T09:00:12;101238.56;;;2.56;69.56
7532;BME280;3807;49.030;8.714;2023-02-11T09:02:38;101240.75;;;2.45;68.79
7532;BME280;3807;49.030;8.714;2023-02-11T09:05:04;101248.91;;;2.65;70.79
7532;BME280;3807;49.030;8.714;2023-02-11T09:07:29;101237.25;;;2.69;69.45
7532;BME280;3807;49.030;8.714;2023-02-11T09:09:54;101232.81;;;2.60;69.41
7532;BME280;3807;49.030;8.714;2023-02-11T09:12:20;101229.94;;;2.76;70.65
7532;BME280;3807;49.030;8.714;2023-02-11T09:14:45;101218.50;;;2.87;70.38
7532;BME280;3807;49.030;8.714;2023-02-11T09:17:10;101225.94;;;2.83;70.35
7532;BME280;3807;49.030;8.714;2023-02-11T09:19:36;101221.97;;;2.91;71.00
7532;BME280;3807;49.030;8.714;2023-02-11T09:22:01;101233.00;;;2.96;69.74
7532;BME280;3807;49.030;8.714;2023-02-11T09:24:26;101242.81;;;2.87;69.75
7532;BME280;3807;49.030;8.714;2023-02-11T09:26:52;101235.41;;;2.92;69.55
7532;BME280;3807;49.030;8.714;2023-02-11T09:29:17;101240.41;;;2.90;69.37
7532;BME280;3807;49.030;8.714;2023-02-11T09:31:42;101235.47;;;2.93;70.24
7532;BME280;3807;49.030;8.714;2023-02-11T09:34:09;101228.91;;;3.00;69.92
7532;BME280;3807;49.030;8.714;2023-02-11T09:36:37;101233.06;;;2.98;70.25
7532;BME280;3807;49.030;8.714;2023-02-11T09:39:06;101237.47;;;3.05;70.39
7532;BME280;3807;49.030;8.714;2023-02-11T09:44:17;101254.53;;;3.15;70.73
7532;BME280;3807;49.030;8.714;2023-02-11T09:46:46;101245.72;;;3.31;70.19
7532;BME280;3807;49.030;8.714;2023-02-11T09:49:19;101254.91;;;3.29;69.75
7532;BME280;3807;49.030;8.714;2023-02-11T09:51:56;101258.34;;;3.02;70.58
7532;BME280;3807;49.030;8.714;2023-02-11T09:56:53;101260.81;;;3.31;69.92
7532;BME280;3807;49.030;8.714;2023-02-11T09:59:18;101272.62;;;3.32;70.04
7532;BME280;3807;49.030;8.714;2023-02-11T10:01:51;101266.06;;;4.03;69.88
7532;BME280;3807;49.030;8.714;2023-02-11T10:07:31;101272.34;;;4.19;68.87
7532;BME280;3807;49.030;8.714;2023-02-11T10:12:46;101271.91;;;3.69;70.19
7532;BME280;3807;49.030;8.714;2023-02-11T10:18:09;101273.06;;;3.80;69.82
7532;BME280;3807;49.030;8.714;2023-02-11T10:23:24;101267.22;;;3.83;69.67
7532;BME280;3807;49.030;8.714;2023-02-11T10:25:51;101270.84;;;3.93;69.64
7532;BME280;3807;49.030;8.714;2023-02-11T10:28:20;101271.34;;;3.79;69.86
7532;BME280;3807;49.030;8.714;2023-02-11T10:31:04;101275.69;;;3.84;70.15
7532;BME280;3807;49.030;8.714;2023-02-11T10:33:59;101259.00;;;3.89;69.94
7532;BME280;3807;49.030;8.714;2023-02-11T10:36:29;101258.88;;;3.84;70.12
7532;BME280;3807;49.030;8.714;2023-02-11T10:38:57;101258.56;;;4.05;69.62
7532;BME280;3807;49.030;8.714;2023-02-11T10:41:31;101259.69;;;4.18;69.20
7532;BME280;3807;49.030;8.714;2023-02-11T10:43:59;101259.94;;;4.28;68.75
7532;BME280;3807;49.030;8.714;2023-02-11T10:46:29;101262.34;;;4.22;69.02
7532;BME280;3807;49.030;8.714;2023-02-11T10:48:56;101261.53;;;4.61;68.39
7532;BME280;3807;49.030;8.714;2023-02-11T10:51:26;101249.88;;;4.66;67.63
7532;BME280;3807;49.030;8.714;2023-02-11T10:56:44;101247.09;;;4.95;67.93
7532;BME280;3807;49.030;8.714;2023-02-11T10:59:28;101233.37;;;5.23;66.79
7532;BME280;3807;49.030;8.714;2023-02-11T11:07:21;101233.13;;;5.56;66.52
7532;BME280;3807;49.030;8.714;2023-02-11T11:12:25;101239.56;;;5.40;66.92
7532;BME280;3807;49.030;8.714;2023-02-11T11:14:58;101245.78;;;5.58;66.85
7532;BME280;3807;49.030;8.714;2023-02-11T11:17:24;101245.50;;;5.41;67.38
7532;BME280;3807;49.030;8.714;2023-02-11T11:20:17;101250.69;;;5.50;67.17
7532;BME280;3807;49.030;8.714;2023-02-11T11:22:39;101245.41;;;5.85;66.50
7532;BME280;3807;49.030;8.714;2023-02-11T11:25:18;101245.28;;;5.79;67.19
7532;BME280;3807;49.030;8.714;2023-02-11T11:27:48;101239.94;;;5.60;67.67
7532;BME280;3807;49.030;8.714;2023-02-11T11:30:15;101241.53;;;5.55;67.45
7532;BME280;3807;49.030;8.714;2023-02-11T11:32:41;101226.63;;;5.70;67.52
7532;BME280;3807;49.030;8.714;2023-02-11T11:35:20;101235.56;;;5.99;66.91
7532;BME280;3807;49.030;8.714;2023-02-11T11:37:56;101231.78;;;6.27;65.95
7532;BME280;3807;49.030;8.714;2023-02-11T11:40:25;101228.34;;;6.23;66.59
7532;BME280;3807;49.030;8.714;2023-02-11T11:45:36;101230.88;;;6.23;67.30
7532;BME280;3807;49.030;8.714;2023-02-11T11:48:19;101230.13;;;6.29;66.63
7532;BME280;3807;49.030;8.714;2023-02-11T11:50:52;101227.44;;;6.18;67.25
7532;BME280;3807;49.030;8.714;2023-02-11T11:53:28;101225.44;;;6.55;66.75
7532;BME280;3807;49.030;8.714;2023-02-11T11:56:21;101222.00;;;6.51;66.99
7532;BME280;3807;49.030;8.714;2023-02-11T11:58:48;101221.22;;;6.55;66.89
7532;BME280;3807;49.030;8.714;2023-02-11T12:07:31;101230.47;;;7.19;65.73
7532;BME280;3807;49.030;8.714;2023-02-11T12:15:31;101226.34;;;7.30;66.30
7532;BME280;3807;49.030;8.714;2023-02-11T12:18:15;101222.00;;;7.20;66.92
7532;BME280;3807;49.030;8.714;2023-02-11T12:26:50;101215.09;;;7.95;64.56
7532;BME280;3807;49.030;8.714;2023-02-11T12:29:36;101215.88;;;7.83;65.83
7532;BME280;3807;49.030;8.714;2023-02-11T12:32:21;101218.41;;;7.81;65.92
7532;BME280;3807;49.030;8.714;2023-02-11T12:35:06;101216.09;;;8.09;65.51
7532;BME280;3807;49.030;8.714;2023-02-11T12:43:32;101212.94;;;8.44;64.30
7532;BME280;3807;49.030;8.714;2023-02-11T12:48:50;101203.72;;;8.59;63.34
7532;BME280;3807;49.030;8.714;2023-02-11T12:54:17;101202.00;;;8.52;65.53
7532;BME280;3807;49.030;8.714;2023-02-11T12:56:53;101208.00;;;8.65;64.18
7532;BME280;3807;49.030;8.714;2023-02-11T13:04:53;101195.34;;;8.85;64.33
7532;BME280;3807;49.030;8.714;2023-02-11T13:07:28;101179.28;;;8.91;63.02
7532;BME280;3807;49.030;8.714;2023-02-11T13:10:14;101189.47;;;9.03;63.23
7532;BME280;3807;49.030;8.714;2023-02-11T13:12:44;101183.53;;;8.98;64.80
7532;BME280;3807;49.030;8.714;2023-02-11T13:15:29;101182.66;;;8.87;64.78
7532;BME280;3807;49.030;8.714;2023-02-11T13:18:11;101191.12;;;8.87;64.57
7532;BME280;3807;49.030;8.714;2023-02-11T13:20:44;101187.81;;;9.06;63.30
7532;BME280;3807;49.030;8.714;2023-02-11T13:23:29;101182.72;;;9.13;63.00
7532;BME280;3807;49.030;8.714;2023-02-11T13:26:06;101186.13;;;9.12;62.51
7532;BME280;3807;49.030;8.714;2023-02-11T13:31:26;101179.37;;;9.23;63.53
7532;BME280;3807;49.030;8.714;2023-02-11T13:33:53;101175.16;;;9.29;63.36
7532;BME280;3807;49.030;8.714;2023-02-11T13:36:24;101177.69;;;9.33;61.92
7532;BME280;3807;49.030;8.714;2023-02-11T13:39:02;101178.53;;;9.38;62.81
7532;BME280;3807;49.030;8.714;2023-02-11T13:41:31;101180.25;;;9.33;62.04
7532;BME280;3807;49.030;8.714;2023-02-11T13:46:46;101168.38;;;9.35;62.56
7532;BME280;3807;49.030;8.714;2023-02-11T13:49:40;101179.41;;;9.35;63.87
7532;BME280;3807;49.030;8.714;2023-02-11T13:54:55;101179.37;;;9.23;63.01
7532;BME280;3807;49.030;8.714;2023-02-11T13:57:29;101178.50;;;9.15;63.43
7532;BME280;3807;49.030;8.714;2023-02-11T14:00:01;101181.94;;;9.34;61.73
7532;BME280;3807;49.030;8.714;2023-02-11T14:02:31;101176.00;;;9.30;62.86
7532;BME280;3807;49.030;8.714;2023-02-11T14:05:23;101181.97;;;9.38;63.67
7532;BME280;3807;49.030;8.714;2023-02-11T14:16:21;101182.78;;;9.33;64.84
7532;BME280;3807;49.030;8.714;2023-02-11T14:23:44;101173.50;;;9.48;62.74
7532;BME280;3807;49.030;8.714;2023-02-11T14:26:29;101166.72;;;9.63;61.76
7532;BME280;3807;49.030;8.714;2023-02-11T14:29:17;101157.38;;;9.71;61.83
7532;BME280;3807;49.030;8.714;2023-02-11T14:34:52;101169.25;;;9.53;61.98
7532;BME280;3807;49.030;8.714;2023-02-11T14:40:32;101180.28;;;9.77;62.59
7532;BME280;3807;49.030;8.714;2023-02-11T14:43:13;101179.44;;;9.67;62.76
7532;BME280;3807;49.030;8.714;2023-02-11T14:45:41;101181.97;;;9.75;63.13
7532;BME280;3807;49.030;8.714;2023-02-11T14:48:15;101176.03;;;9.71;62.58
7532;BME280;3807;49.030;8.714;2023-02-11T14:50:52;101187.06;;;9.78;62.28
7532;BME280;3807;49.030;8.714;2023-02-11T14:53:21;101171.78;;;9.92;61.66
7532;BME280;3807;49.030;8.714;2023-02-11T14:55:50;101179.41;;;9.99;60.96
7532;BME280;3807;49.030;8.714;2023-02-11T14:58:23;101187.91;;;10.08;61.26
7532;BME280;3807;49.030;8.714;2023-02-11T15:01:20;101189.59;;;10.06;60.62
7532;BME280;3807;49.030;8.714;2023-02-11T15:03:48;101189.56;;;10.07;60.83
7532;BME280;3807;49.030;8.714;2023-02-11T15:06:17;101192.94;;;10.11;62.66
7532;BME280;3807;49.030;8.714;2023-02-11T15:11:17;101195.53;;;10.12;60.99
7532;BME280;3807;49.030;8.714;2023-02-11T15:13:43;101188.75;;;10.02;61.38
7532;BME280;3807;49.030;8.714;2023-02-11T15:16:15;101192.97;;;10.09;61.17
7532;BME280;3807;49.030;8.714;2023-02-11T15:18:47;101196.34;;;10.19;60.71
7532;BME280;3807;49.030;8.714;2023-02-11T15:21:19;101196.34;;;10.14;61.58
7532;BME280;3807;49.030;8.714;2023-02-11T15:23:55;101200.59;;;10.11;62.69
7532;BME280;3807;49.030;8.714;2023-02-11T15:26:21;101207.38;;;10.10;61.26
7532;BME280;3807;49.030;8.714;2023-02-11T15:28:47;101209.94;;;10.12;61.26
7532;BME280;3807;49.030;8.714;2023-02-11T15:31:17;101220.13;;;10.02;62.53
7532;BME280;3807;49.030;8.714;2023-02-11T15:33:43;101218.44;;;10.15;62.37